createdAt,value
2019-01-29T00:04:58.287Z,24.37
2019-01-29T00:10:02.248Z,42.43
2019-01-29T00:15:06.179Z,39.38
2019-01-29T00:20:10.497Z,20.37
2019-01-29T00:25:14.580Z,18.05
2019-01-29T00:30:18.409Z,20.92
2019-01-29T00:35:22.128Z,13.18
2019-01-29T00:40:26.083Z,34.55
2019-01-29T00:45:32.953Z,15.28
2019-01-29T00:50:36.637Z,14.83
2019-01-29T00:55:40.580Z,19.23
2019-01-29T01:00:44.392Z,23.60
2019-01-29T01:05:48.041Z,22.27
2019-01-29T01:10:51.897Z,13.50
2019-01-29T01:15:56.598Z,14.28
2019-01-29T01:21:01.102Z,11.93
2019-01-29T01:26:05.089Z,15.20
2019-01-29T01:31:09.102Z,26.60
2019-01-29T01:36:13.018Z,11.65
2019-01-29T01:41:16.964Z,17.98
2019-01-29T01:46:20.965Z,15.40
2019-01-29T01:51:24.967Z,21.23
2019-01-29T01:56:29.027Z,20.27
2019-01-29T02:01:33.404Z,15.13
2019-01-29T02:06:40.240Z,17.92
2019-01-29T02:11:43.897Z,12.18
2019-01-29T02:16:47.550Z,14.68
2019-01-29T02:21:51.807Z,13.13
2019-01-29T02:26:57.281Z,22.37
2019-01-29T02:32:01.057Z,13.00
2019-01-29T02:37:05.547Z,12.07
2019-01-29T02:42:09.632Z,10.72
2019-01-29T02:47:13.299Z,15.13
2019-01-29T02:52:16.970Z,11.55
2019-01-29T02:57:20.702Z,15.30
2019-01-29T03:02:24.623Z,18.98
2019-01-29T03:07:28.373Z,14.25
2019-01-29T03:12:32.462Z,13.90
2019-01-29T03:17:36.129Z,13.60
2019-01-29T03:22:39.985Z,14.85
2019-01-29T03:27:46.856Z,14.87
2019-01-29T03:32:50.583Z,12.80
2019-01-29T03:37:54.534Z,14.78
2019-01-29T03:42:58.633Z,11.08
2019-01-29T03:48:02.307Z,13.15
2019-01-29T03:53:05.968Z,14.40
2019-01-29T03:58:10.273Z,14.07
2019-01-29T04:03:16.083Z,14.03
2019-01-29T04:08:22.297Z,21.33
2019-01-29T04:13:26.210Z,22.42
2019-01-29T04:18:29.986Z,20.12
2019-01-29T04:23:34.403Z,73.02
2019-01-29T04:28:38.885Z,27.15
2019-01-29T04:33:43.068Z,24.63
2019-01-29T04:38:47.236Z,27.77
2019-01-29T04:43:51.170Z,27.95
2019-01-29T04:48:54.890Z,45.73
2019-01-29T04:53:58.968Z,57.48
2019-01-29T04:59:05.679Z,43.85
2019-01-29T05:04:09.547Z,56.50
2019-01-29T05:09:13.201Z,46.58
2019-01-29T05:14:18.142Z,70.55
2019-01-29T05:19:24.976Z,59.63
2019-01-29T05:24:29.683Z,65.08
2019-01-29T05:29:41.165Z,81.97
2019-01-29T05:34:44.921Z,57.15
2019-01-29T05:39:48.731Z,47.13
2019-01-29T05:44:52.985Z,105.80
2019-01-29T05:49:56.730Z,83.35
2019-01-29T05:55:00.612Z,71.40
2019-01-29T06:00:07.251Z,83.47
2019-01-29T06:05:11.530Z,117.90
2019-01-29T06:10:15.282Z,82.30
2019-01-29T06:15:19.158Z,168.65
2019-01-29T06:20:24.066Z,234.43
2019-01-29T06:25:28.637Z,142.85
2019-01-29T06:30:32.304Z,104.12
2019-01-29T06:35:36.255Z,100.18
2019-01-29T06:40:40.681Z,106.67
2019-01-29T06:45:44.370Z,96.45
2019-01-29T06:50:48.280Z,85.92
2019-01-29T06:55:51.939Z,104.17
2019-01-29T07:00:56.049Z,98.60
2019-01-29T07:05:59.702Z,51.02
2019-01-29T07:11:04.803Z,58.08
2019-01-29T07:16:28.739Z,66.07
2019-01-29T07:21:32.537Z,52.17
2019-01-29T07:26:36.556Z,68.80
2019-01-29T07:31:40.365Z,89.67
2019-01-29T07:36:44.865Z,97.92
2019-01-29T07:41:48.993Z,125.25
2019-01-29T07:46:53.161Z,163.35
2019-01-29T07:51:57.937Z,104.90
2019-01-29T07:57:01.706Z,102.53
2019-01-29T08:02:05.589Z,82.25
2019-01-29T08:07:09.409Z,113.57
2019-01-29T08:12:13.796Z,93.17
2019-01-29T08:17:17.905Z,105.17
2019-01-29T08:22:21.613Z,61.88
2019-01-29T08:27:25.985Z,75.00
2019-01-29T08:32:30.013Z,114.50
2019-01-29T08:37:40.814Z,103.60
2019-01-29T08:42:44.786Z,102.55
2019-01-29T08:47:48.564Z,84.83
2019-01-29T08:52:52.380Z,199.00
2019-01-29T08:57:56.152Z,163.43
2019-01-29T09:02:59.941Z,133.93
2019-01-29T09:08:04.178Z,87.90
2019-01-29T09:13:07.898Z,103.70
2019-01-29T09:18:11.673Z,103.85
2019-01-29T09:23:17.163Z,79.65
2019-01-29T09:28:21.285Z,70.03
2019-01-29T09:33:25.280Z,77.05
2019-01-29T09:38:29.265Z,57.40
2019-01-29T09:43:33.408Z,46.85
2019-01-29T09:48:37.064Z,49.08
2019-01-29T09:53:40.951Z,42.95
2019-01-29T09:58:44.821Z,48.33
2019-01-29T10:03:48.499Z,60.23
2019-01-29T10:08:52.906Z,46.50
2019-01-29T10:13:57.849Z,52.05
2019-01-29T10:19:01.679Z,43.25
2019-01-29T10:24:05.647Z,41.28
2019-01-29T10:29:11.776Z,35.80
2019-01-29T10:34:18.101Z,46.25
2019-01-29T10:39:21.883Z,45.38
2019-01-29T10:44:26.528Z,65.32
2019-01-29T10:49:30.375Z,85.85
2019-01-29T10:54:34.218Z,49.70
2019-01-29T10:59:37.893Z,202.68
2019-01-29T11:04:42.308Z,53.87
2019-01-29T11:09:46.219Z,104.27
2019-01-29T11:14:49.905Z,62.38
2019-01-29T11:19:54.476Z,48.90
2019-01-29T11:24:58.330Z,65.20
2019-01-29T11:30:03.262Z,70.10
2019-01-29T11:35:10.083Z,56.15
2019-01-29T11:40:17.951Z,82.17
2019-01-29T11:45:33.725Z,97.85
2019-01-29T11:50:38.174Z,144.68
2019-01-29T11:55:42.949Z,134.00
2019-01-29T12:01:12.226Z,179.27
2019-01-29T12:06:17.447Z,191.70
2019-01-29T12:11:21.495Z,196.90
2019-01-29T12:16:25.385Z,159.35
2019-01-29T12:21:29.432Z,138.62
2019-01-29T12:26:33.442Z,40.48
2019-01-29T12:31:37.940Z,22.00
2019-01-29T12:36:42.203Z,26.37
2019-01-29T12:41:46.517Z,27.98
2019-01-29T12:46:50.848Z,64.53
2019-01-29T12:52:13.398Z,51.45
2019-01-29T12:57:17.655Z,35.70
2019-01-29T13:02:21.678Z,122.37
2019-01-29T13:07:28.416Z,97.10
2019-01-29T13:12:33.082Z,78.60
2019-01-29T13:17:37.419Z,100.05
2019-01-29T13:22:41.351Z,104.90
2019-01-29T13:27:45.164Z,62.75
2019-01-29T13:32:49.243Z,112.50
2019-01-29T13:37:53.098Z,243.42
2019-01-29T13:42:56.764Z,164.90
2019-01-29T13:48:01.064Z,275.30
2019-01-29T13:53:05.495Z,301.18
2019-01-29T13:58:09.935Z,301.07
2019-01-29T14:03:13.923Z,252.97
2019-01-29T14:08:19.193Z,155.63
2019-01-29T14:13:23.038Z,169.20
2019-01-29T14:18:29.354Z,107.30
2019-01-29T14:23:33.030Z,37.48
2019-01-29T14:28:36.700Z,31.15
2019-01-29T14:33:40.753Z,29.12
2019-01-29T14:39:09.496Z,24.25
2019-01-29T14:44:34.532Z,39.95
2019-01-29T14:49:39.788Z,25.05
2019-01-29T14:54:45.854Z,39.55
2019-01-29T14:59:49.585Z,11.00
2019-01-29T15:04:53.319Z,87.30
2019-01-29T15:09:57.041Z,16.35
2019-01-29T15:15:00.744Z,22.80
2019-01-29T15:20:06.295Z,14.73
2019-01-29T15:25:10.677Z,23.98
2019-01-29T15:30:22.987Z,41.83
2019-01-29T15:35:27.712Z,61.37
2019-01-29T15:40:33.810Z,30.17
2019-01-29T15:45:37.548Z,37.25
2019-01-29T15:50:42.580Z,19.85
2019-01-29T15:55:46.265Z,40.48
2019-01-29T16:00:50.004Z,81.92
2019-01-29T16:05:53.743Z,122.47
2019-01-29T16:10:57.550Z,68.30
2019-01-29T16:16:01.491Z,100.75
2019-01-29T16:21:05.232Z,68.30
2019-01-29T16:26:08.975Z,121.35
2019-01-29T16:31:12.827Z,65.80
2019-01-29T16:36:16.750Z,48.23
2019-01-29T16:41:20.732Z,51.42
2019-01-29T16:46:24.501Z,53.28
2019-01-29T16:51:30.190Z,57.48
2019-01-29T16:56:36.459Z,107.95
2019-01-29T17:01:40.131Z,100.40
2019-01-29T17:06:44.647Z,115.92
2019-01-29T17:11:48.484Z,157.97
2019-01-29T17:16:52.656Z,121.57
2019-01-29T17:21:56.467Z,208.30
2019-01-29T17:27:00.133Z,283.62
2019-01-29T17:32:04.045Z,238.65
2019-01-29T17:37:11.485Z,237.95
2019-01-29T17:42:15.200Z,287.90
2019-01-29T17:47:19.013Z,283.52
2019-01-29T17:52:22.802Z,278.98
2019-01-29T17:57:26.561Z,254.87
2019-01-29T18:02:33.009Z,288.07
2019-01-29T18:07:37.017Z,236.15
2019-01-29T18:12:40.644Z,250.65
2019-01-29T18:17:45.415Z,430.57
2019-01-29T18:22:49.189Z,369.10
2019-01-29T18:28:00.972Z,322.55
2019-01-29T18:32:59.004Z,307.65
2019-01-29T18:38:03.460Z,387.15
2019-01-29T18:43:07.535Z,280.90
2019-01-29T18:48:11.370Z,245.10
2019-01-29T18:53:16.506Z,144.87
2019-01-29T18:58:20.291Z,212.35
2019-01-29T19:03:24.098Z,366.40
2019-01-29T19:08:28.266Z,175.87
2019-01-29T19:13:32.208Z,117.30
2019-01-29T19:18:36.081Z,44.53
2019-01-29T19:23:39.995Z,42.55
2019-01-29T19:28:43.824Z,102.92
2019-01-29T19:33:47.672Z,64.20
2019-01-29T19:38:51.951Z,91.08
2019-01-29T19:43:55.761Z,61.48
2019-01-29T19:48:59.686Z,63.13
2019-01-29T19:54:04.119Z,79.67
2019-01-29T19:59:07.925Z,79.82
2019-01-29T20:04:11.653Z,117.62
2019-01-29T20:09:15.514Z,71.60
2019-01-29T20:14:20.860Z,80.55
2019-01-29T20:19:25.103Z,61.92
2019-01-29T20:24:32.069Z,69.82
2019-01-29T20:29:36.186Z,52.48
2019-01-29T20:34:39.947Z,69.58
2019-01-29T20:39:44.220Z,98.62
2019-01-29T20:44:47.902Z,96.17
2019-01-29T20:49:51.625Z,95.00
2019-01-29T20:54:55.460Z,83.72
2019-01-29T20:59:59.222Z,102.85
2019-01-29T21:05:03.873Z,100.67
2019-01-29T21:10:10.056Z,67.15
2019-01-29T21:15:15.405Z,112.50
2019-01-29T21:20:21.277Z,95.45
2019-01-29T21:25:25.057Z,70.57
2019-01-29T21:30:30.831Z,108.27
2019-01-29T21:35:34.753Z,114.52
2019-01-29T21:40:38.981Z,72.35
2019-01-29T21:45:42.781Z,55.35
2019-01-29T21:50:46.485Z,89.40
2019-01-29T21:55:50.931Z,80.40
2019-01-29T22:00:54.693Z,72.12
2019-01-29T22:05:58.474Z,105.58
2019-01-29T22:11:02.156Z,75.78
2019-01-29T22:16:05.886Z,103.80
2019-01-29T22:21:09.658Z,120.15
2019-01-29T22:26:14.946Z,92.53
2019-01-29T22:31:18.670Z,61.02
2019-01-29T22:36:22.727Z,116.08
2019-01-29T22:41:27.158Z,54.10
2019-01-29T22:46:31.847Z,65.32
2019-01-29T22:51:38.444Z,61.28
2019-01-29T22:56:42.520Z,50.03
2019-01-29T23:01:46.561Z,75.50
2019-01-29T23:07:01.889Z,77.32
2019-01-29T23:12:06.676Z,75.80
2019-01-29T23:17:10.610Z,59.95
2019-01-29T23:22:14.752Z,95.22
2019-01-29T23:27:18.469Z,66.82
2019-01-29T23:32:22.185Z,47.67
2019-01-29T23:37:28.500Z,41.88
2019-01-29T23:42:33.174Z,36.05
2019-01-29T23:47:38.677Z,31.42
2019-01-29T23:52:42.556Z,31.65
2019-01-29T23:57:46.390Z,35.98
